sensor_id;sensor_type;location;lat;lon;timestamp;P1;durP1;ratioP1;P2;durP2;ratioP2
5209;SDS011;2624;48.048;11.706;2023-08-06T00:01:46;2.63;;;2.53;;
5209;SDS011;2624;48.048;11.706;2023-08-06T00:06:47;3.10;;;2.33;;
5209;SDS011;2624;48.048;11.706;2023-08-06T00:11:51;2.97;;;2.37;;
5209;SDS011;2624;48.048;11.706;2023-08-06T00:16:52;3.77;;;3.03;;
5209;SDS011;2624;48.048;11.706;2023-08-06T00:21:54;3.00;;;2.80;;
5209;SDS011;2624;48.048;11.706;2023-08-06T00:26:57;2.93;;;2.60;;
5209;SDS011;2624;48.048;11.706;2023-08-06T00:31:59;2.30;;;2.20;;
5209;SDS011;2624;48.048;11.706;2023-08-06T00:37:01;2.43;;;2.30;;
5209;SDS011;2624;48.048;11.706;2023-08-06T00:42:04;2.17;;;2.07;;
5209;SDS011;2624;48.048;11.706;2023-08-06T00:47:06;2.37;;;2.20;;
5209;SDS011;2624;48.048;11.706;2023-08-06T00:52:09;8.50;;;1.97;;
5209;SDS011;2624;48.048;11.706;2023-08-06T00:57:14;2.87;;;2.63;;
5209;SDS011;2624;48.048;11.706;2023-08-06T01:02:16;2.20;;;2.10;;
5209;SDS011;2624;48.048;11.706;2023-08-06T01:07:20;6.23;;;2.40;;
5209;SDS011;2624;48.048;11.706;2023-08-06T01:12:32;2.80;;;2.60;;
5209;SDS011;2624;48.048;11.706;2023-08-06T01:17:40;1.90;;;1.80;;
5209;SDS011;2624;48.048;11.706;2023-08-06T01:22:44;3.60;;;2.20;;
5209;SDS011;2624;48.048;11.706;2023-08-06T01:27:47;2.80;;;2.60;;
5209;SDS011;2624;48.048;11.706;2023-08-06T01:32:50;2.93;;;2.80;;
5209;SDS011;2624;48.048;11.706;2023-08-06T01:38:00;1.93;;;1.83;;
5209;SDS011;2624;48.048;11.706;2023-08-06T01:43:02;3.60;;;2.37;;
5209;SDS011;2624;48.048;11.706;2023-08-06T01:48:04;4.30;;;2.70;;
5209;SDS011;2624;48.048;11.706;2023-08-06T01:53:07;5.30;;;2.67;;
5209;SDS011;2624;48.048;11.706;2023-08-06T01:58:09;2.73;;;2.53;;
5209;SDS011;2624;48.048;11.706;2023-08-06T02:03:10;2.40;;;2.30;;
5209;SDS011;2624;48.048;11.706;2023-08-06T02:08:13;2.63;;;2.50;;
5209;SDS011;2624;48.048;11.706;2023-08-06T02:13:15;2.00;;;2.00;;
5209;SDS011;2624;48.048;11.706;2023-08-06T02:18:17;3.20;;;2.07;;
5209;SDS011;2624;48.048;11.706;2023-08-06T02:23:20;1.80;;;1.70;;
5209;SDS011;2624;48.048;11.706;2023-08-06T02:28:22;2.33;;;2.17;;
5209;SDS011;2624;48.048;11.706;2023-08-06T02:33:24;3.80;;;2.13;;
5209;SDS011;2624;48.048;11.706;2023-08-06T02:38:27;2.43;;;2.17;;
5209;SDS011;2624;48.048;11.706;2023-08-06T02:43:29;1.93;;;1.83;;
5209;SDS011;2624;48.048;11.706;2023-08-06T02:48:31;2.10;;;2.00;;
5209;SDS011;2624;48.048;11.706;2023-08-06T02:53:34;1.13;;;1.13;;
5209;SDS011;2624;48.048;11.706;2023-08-06T02:58:36;2.07;;;1.20;;
5209;SDS011;2624;48.048;11.706;2023-08-06T03:03:37;1.40;;;1.40;;
5209;SDS011;2624;48.048;11.706;2023-08-06T03:08:41;1.23;;;1.23;;
5209;SDS011;2624;48.048;11.706;2023-08-06T03:13:42;1.70;;;1.30;;
5209;SDS011;2624;48.048;11.706;2023-08-06T03:18:44;1.43;;;1.43;;
5209;SDS011;2624;48.048;11.706;2023-08-06T03:23:47;1.60;;;1.50;;
5209;SDS011;2624;48.048;11.706;2023-08-06T03:28:49;1.40;;;1.30;;
5209;SDS011;2624;48.048;11.706;2023-08-06T03:33:51;7.10;;;2.70;;
5209;SDS011;2624;48.048;11.706;2023-08-06T03:38:54;1.50;;;1.50;;
5209;SDS011;2624;48.048;11.706;2023-08-06T03:43:56;1.00;;;1.00;;
5209;SDS011;2624;48.048;11.706;2023-08-06T03:48:58;7.90;;;1.50;;
5209;SDS011;2624;48.048;11.706;2023-08-06T03:54:01;1.50;;;1.50;;
5209;SDS011;2624;48.048;11.706;2023-08-06T03:59:03;1.13;;;1.03;;
5209;SDS011;2624;48.048;11.706;2023-08-06T04:04:04;1.40;;;1.40;;
5209;SDS011;2624;48.048;11.706;2023-08-06T04:09:07;1.10;;;1.00;;
5209;SDS011;2624;48.048;11.706;2023-08-06T04:14:09;1.30;;;1.30;;
5209;SDS011;2624;48.048;11.706;2023-08-06T04:19:11;1.50;;;1.40;;
5209;SDS011;2624;48.048;11.706;2023-08-06T04:24:14;1.50;;;1.40;;
5209;SDS011;2624;48.048;11.706;2023-08-06T04:29:16;10.33;;;1.30;;
5209;SDS011;2624;48.048;11.706;2023-08-06T04:34:18;1.00;;;1.00;;
5209;SDS011;2624;48.048;11.706;2023-08-06T04:39:21;2.40;;;1.60;;
5209;SDS011;2624;48.048;11.706;2023-08-06T04:44:23;1.37;;;1.37;;
5209;SDS011;2624;48.048;11.706;2023-08-06T04:49:24;4.10;;;1.60;;
5209;SDS011;2624;48.048;11.706;2023-08-06T04:54:28;1.57;;;1.20;;
5209;SDS011;2624;48.048;11.706;2023-08-06T04:59:29;1.70;;;1.57;;
5209;SDS011;2624;48.048;11.706;2023-08-06T05:04:31;1.10;;;1.10;;
5209;SDS011;2624;48.048;11.706;2023-08-06T05:09:34;1.43;;;1.40;;
5209;SDS011;2624;48.048;11.706;2023-08-06T05:14:36;1.20;;;1.13;;
5209;SDS011;2624;48.048;11.706;2023-08-06T05:19:38;1.30;;;1.30;;
5209;SDS011;2624;48.048;11.706;2023-08-06T05:24:41;2.20;;;1.23;;
5209;SDS011;2624;48.048;11.706;2023-08-06T05:29:43;0.90;;;0.90;;
5209;SDS011;2624;48.048;11.706;2023-08-06T05:34:45;1.23;;;1.23;;
5209;SDS011;2624;48.048;11.706;2023-08-06T05:39:48;1.43;;;1.43;;
5209;SDS011;2624;48.048;11.706;2023-08-06T05:44:50;1.10;;;1.10;;
5209;SDS011;2624;48.048;11.706;2023-08-06T05:49:52;1.13;;;1.13;;
5209;SDS011;2624;48.048;11.706;2023-08-06T05:54:55;2.40;;;1.30;;
5209;SDS011;2624;48.048;11.706;2023-08-06T05:59:57;1.23;;;1.23;;
5209;SDS011;2624;48.048;11.706;2023-08-06T06:04:58;1.77;;;1.67;;
5209;SDS011;2624;48.048;11.706;2023-08-06T06:10:02;2.27;;;1.10;;
5209;SDS011;2624;48.048;11.706;2023-08-06T06:15:04;1.20;;;1.20;;
5209;SDS011;2624;48.048;11.706;2023-08-06T06:20:07;1.23;;;1.20;;
5209;SDS011;2624;48.048;11.706;2023-08-06T06:25:10;1.90;;;1.80;;
5209;SDS011;2624;48.048;11.706;2023-08-06T06:30:12;4.33;;;1.37;;
5209;SDS011;2624;48.048;11.706;2023-08-06T06:35:14;2.87;;;1.13;;
5209;SDS011;2624;48.048;11.706;2023-08-06T06:40:17;1.13;;;1.13;;
5209;SDS011;2624;48.048;11.706;2023-08-06T06:45:19;1.37;;;1.17;;
5209;SDS011;2624;48.048;11.706;2023-08-06T06:50:21;0.90;;;0.90;;
5209;SDS011;2624;48.048;11.706;2023-08-06T06:55:25;0.87;;;0.87;;
5209;SDS011;2624;48.048;11.706;2023-08-06T07:00:27;1.20;;;1.10;;
5209;SDS011;2624;48.048;11.706;2023-08-06T07:05:29;1.10;;;1.00;;
5209;SDS011;2624;48.048;11.706;2023-08-06T07:10:32;3.43;;;0.97;;
5209;SDS011;2624;48.048;11.706;2023-08-06T07:15:34;1.90;;;0.87;;
5209;SDS011;2624;48.048;11.706;2023-08-06T07:20:36;0.60;;;0.60;;
5209;SDS011;2624;48.048;11.706;2023-08-06T07:25:39;0.87;;;0.87;;
5209;SDS011;2624;48.048;11.706;2023-08-06T07:30:41;1.17;;;0.80;;
5209;SDS011;2624;48.048;11.706;2023-08-06T07:35:43;1.43;;;0.90;;
5209;SDS011;2624;48.048;11.706;2023-08-06T07:40:46;1.40;;;1.03;;
5209;SDS011;2624;48.048;11.706;2023-08-06T07:45:48;5.03;;;1.57;;
5209;SDS011;2624;48.048;11.706;2023-08-06T07:50:51;1.03;;;0.80;;
5209;SDS011;2624;48.048;11.706;2023-08-06T07:55:54;2.77;;;0.90;;
5209;SDS011;2624;48.048;11.706;2023-08-06T08:00:56;1.00;;;0.90;;
5209;SDS011;2624;48.048;11.706;2023-08-06T08:05:58;4.13;;;0.50;;
5209;SDS011;2624;48.048;11.706;2023-08-06T08:11:01;3.27;;;0.80;;
5209;SDS011;2624;48.048;11.706;2023-08-06T08:16:03;1.80;;;0.80;;
5209;SDS011;2624;48.048;11.706;2023-08-06T08:21:05;1.10;;;1.00;;
5209;SDS011;2624;48.048;11.706;2023-08-06T08:26:08;0.73;;;0.73;;
5209;SDS011;2624;48.048;11.706;2023-08-06T08:31:10;1.23;;;0.83;;
5209;SDS011;2624;48.048;11.706;2023-08-06T08:36:12;2.60;;;0.70;;
5209;SDS011;2624;48.048;11.706;2023-08-06T08:41:15;1.00;;;0.70;;
5209;SDS011;2624;48.048;11.706;2023-08-06T08:46:17;1.40;;;0.80;;
5209;SDS011;2624;48.048;11.706;2023-08-06T08:51:20;0.43;;;0.43;;
5209;SDS011;2624;48.048;11.706;2023-08-06T08:56:24;0.63;;;0.57;;
5209;SDS011;2624;48.048;11.706;2023-08-06T09:01:25;1.53;;;0.60;;
5209;SDS011;2624;48.048;11.706;2023-08-06T09:06:28;0.70;;;0.70;;
5209;SDS011;2624;48.048;11.706;2023-08-06T09:11:35;0.93;;;0.30;;
5209;SDS011;2624;48.048;11.706;2023-08-06T09:16:43;1.70;;;0.50;;
5209;SDS011;2624;48.048;11.706;2023-08-06T09:21:45;0.40;;;0.40;;
5209;SDS011;2624;48.048;11.706;2023-08-06T09:26:50;0.53;;;0.53;;
5209;SDS011;2624;48.048;11.706;2023-08-06T09:31:52;0.40;;;0.40;;
5209;SDS011;2624;48.048;11.706;2023-08-06T09:36:54;0.50;;;0.50;;
5209;SDS011;2624;48.048;11.706;2023-08-06T09:41:58;0.40;;;0.40;;
5209;SDS011;2624;48.048;11.706;2023-08-06T09:47:01;1.27;;;0.40;;
5209;SDS011;2624;48.048;11.706;2023-08-06T09:52:04;4.53;;;0.40;;
5209;SDS011;2624;48.048;11.706;2023-08-06T09:57:08;0.50;;;0.50;;
5209;SDS011;2624;48.048;11.706;2023-08-06T10:02:11;8.70;;;0.60;;
5209;SDS011;2624;48.048;11.706;2023-08-06T10:07:14;0.60;;;0.40;;
5209;SDS011;2624;48.048;11.706;2023-08-06T10:12:20;0.70;;;0.50;;
5209;SDS011;2624;48.048;11.706;2023-08-06T10:17:22;0.40;;;0.40;;
5209;SDS011;2624;48.048;11.706;2023-08-06T10:22:25;0.40;;;0.40;;
5209;SDS011;2624;48.048;11.706;2023-08-06T10:27:29;0.30;;;0.30;;
5209;SDS011;2624;48.048;11.706;2023-08-06T10:32:46;0.93;;;0.40;;
5209;SDS011;2624;48.048;11.706;2023-08-06T10:37:48;7.80;;;0.40;;
5209;SDS011;2624;48.048;11.706;2023-08-06T10:42:51;0.43;;;0.43;;
5209;SDS011;2624;48.048;11.706;2023-08-06T10:47:53;0.97;;;0.40;;
5209;SDS011;2624;48.048;11.706;2023-08-06T10:52:55;0.67;;;0.40;;
5209;SDS011;2624;48.048;11.706;2023-08-06T10:57:58;0.40;;;0.40;;
5209;SDS011;2624;48.048;11.706;2023-08-06T11:03:00;0.67;;;0.67;;
5209;SDS011;2624;48.048;11.706;2023-08-06T11:08:04;2.30;;;0.40;;
5209;SDS011;2624;48.048;11.706;2023-08-06T11:13:07;0.30;;;0.30;;
5209;SDS011;2624;48.048;11.706;2023-08-06T11:18:09;0.40;;;0.40;;
5209;SDS011;2624;48.048;11.706;2023-08-06T11:23:11;0.63;;;0.30;;
5209;SDS011;2624;48.048;11.706;2023-08-06T11:28:14;0.50;;;0.50;;
5209;SDS011;2624;48.048;11.706;2023-08-06T11:33:19;0.53;;;0.40;;
5209;SDS011;2624;48.048;11.706;2023-08-06T11:38:24;0.30;;;0.30;;
5209;SDS011;2624;48.048;11.706;2023-08-06T11:43:29;0.40;;;0.40;;
5209;SDS011;2624;48.048;11.706;2023-08-06T11:48:33;0.40;;;0.40;;
5209;SDS011;2624;48.048;11.706;2023-08-06T11:53:54;0.30;;;0.30;;
5209;SDS011;2624;48.048;11.706;2023-08-06T11:58:57;0.40;;;0.40;;
5209;SDS011;2624;48.048;11.706;2023-08-06T12:03:59;0.30;;;0.30;;
5209;SDS011;2624;48.048;11.706;2023-08-06T12:09:01;0.33;;;0.33;;
5209;SDS011;2624;48.048;11.706;2023-08-06T12:14:04;0.60;;;0.40;;
5209;SDS011;2624;48.048;11.706;2023-08-06T12:19:06;0.30;;;0.30;;
5209;SDS011;2624;48.048;11.706;2023-08-06T12:24:08;0.30;;;0.30;;
5209;SDS011;2624;48.048;11.706;2023-08-06T12:29:11;0.30;;;0.30;;
5209;SDS011;2624;48.048;11.706;2023-08-06T12:34:13;0.60;;;0.30;;
5209;SDS011;2624;48.048;11.706;2023-08-06T12:39:15;0.30;;;0.30;;
5209;SDS011;2624;48.048;11.706;2023-08-06T12:44:18;0.30;;;0.30;;
5209;SDS011;2624;48.048;11.706;2023-08-06T12:49:20;0.30;;;0.30;;
5209;SDS011;2624;48.048;11.706;2023-08-06T12:54:22;0.40;;;0.40;;
5209;SDS011;2624;48.048;11.706;2023-08-06T12:59:25;0.30;;;0.30;;
5209;SDS011;2624;48.048;11.706;2023-08-06T13:04:27;0.30;;;0.30;;
5209;SDS011;2624;48.048;11.706;2023-08-06T13:09:29;0.70;;;0.40;;
5209;SDS011;2624;48.048;11.706;2023-08-06T13:14:33;1.03;;;0.40;;
5209;SDS011;2624;48.048;11.706;2023-08-06T13:19:34;0.30;;;0.30;;
5209;SDS011;2624;48.048;11.706;2023-08-06T13:24:36;0.30;;;0.30;;
5209;SDS011;2624;48.048;11.706;2023-08-06T13:29:39;0.50;;;0.30;;
5209;SDS011;2624;48.048;11.706;2023-08-06T13:34:41;0.30;;;0.30;;
5209;SDS011;2624;48.048;11.706;2023-08-06T13:39:43;0.30;;;0.30;;
5209;SDS011;2624;48.048;11.706;2023-08-06T13:44:46;0.40;;;0.40;;
5209;SDS011;2624;48.048;11.706;2023-08-06T13:49:47;1.57;;;0.33;;
5209;SDS011;2624;48.048;11.706;2023-08-06T13:54:49;0.30;;;0.30;;
5209;SDS011;2624;48.048;11.706;2023-08-06T13:59:52;0.70;;;0.40;;
5209;SDS011;2624;48.048;11.706;2023-08-06T14:04:54;0.47;;;0.47;;
5209;SDS011;2624;48.048;11.706;2023-08-06T14:09:56;0.40;;;0.40;;
5209;SDS011;2624;48.048;11.706;2023-08-06T14:15:00;0.30;;;0.30;;
5209;SDS011;2624;48.048;11.706;2023-08-06T14:20:03;0.80;;;0.40;;
5209;SDS011;2624;48.048;11.706;2023-08-06T14:25:07;0.40;;;0.40;;
5209;SDS011;2624;48.048;11.706;2023-08-06T14:30:11;0.40;;;0.40;;
5209;SDS011;2624;48.048;11.706;2023-08-06T14:35:13;0.70;;;0.40;;
5209;SDS011;2624;48.048;11.706;2023-08-06T14:40:15;0.50;;;0.50;;
5209;SDS011;2624;48.048;11.706;2023-08-06T14:45:18;0.40;;;0.40;;
5209;SDS011;2624;48.048;11.706;2023-08-06T14:50:20;1.83;;;0.30;;
5209;SDS011;2624;48.048;11.706;2023-08-06T14:55:24;0.40;;;0.40;;
5209;SDS011;2624;48.048;11.706;2023-08-06T15:00:28;0.30;;;0.30;;
5209;SDS011;2624;48.048;11.706;2023-08-06T15:05:30;0.60;;;0.60;;
5209;SDS011;2624;48.048;11.706;2023-08-06T15:10:31;0.40;;;0.40;;
5209;SDS011;2624;48.048;11.706;2023-08-06T15:15:34;4.53;;;0.50;;
5209;SDS011;2624;48.048;11.706;2023-08-06T15:20:39;0.40;;;0.40;;
5209;SDS011;2624;48.048;11.706;2023-08-06T15:25:41;0.30;;;0.30;;
5209;SDS011;2624;48.048;11.706;2023-08-06T15:30:47;3.23;;;0.50;;
5209;SDS011;2624;48.048;11.706;2023-08-06T15:35:50;0.40;;;0.40;;
5209;SDS011;2624;48.048;11.706;2023-08-06T15:40:53;0.50;;;0.50;;
5209;SDS011;2624;48.048;11.706;2023-08-06T15:45:56;1.70;;;0.40;;
5209;SDS011;2624;48.048;11.706;2023-08-06T15:50:58;0.40;;;0.40;;
5209;SDS011;2624;48.048;11.706;2023-08-06T15:56:00;0.40;;;0.40;;
5209;SDS011;2624;48.048;11.706;2023-08-06T16:01:03;0.30;;;0.30;;
5209;SDS011;2624;48.048;11.706;2023-08-06T16:06:05;0.50;;;0.30;;
5209;SDS011;2624;48.048;11.706;2023-08-06T16:11:07;0.50;;;0.40;;
5209;SDS011;2624;48.048;11.706;2023-08-06T16:16:10;0.40;;;0.40;;
5209;SDS011;2624;48.048;11.706;2023-08-06T16:21:12;0.30;;;0.30;;
5209;SDS011;2624;48.048;11.706;2023-08-06T16:26:13;0.40;;;0.40;;
5209;SDS011;2624;48.048;11.706;2023-08-06T16:31:17;0.30;;;0.30;;
5209;SDS011;2624;48.048;11.706;2023-08-06T16:36:19;0.30;;;0.30;;
5209;SDS011;2624;48.048;11.706;2023-08-06T16:41:21;0.30;;;0.30;;
5209;SDS011;2624;48.048;11.706;2023-08-06T16:46:24;0.40;;;0.40;;
5209;SDS011;2624;48.048;11.706;2023-08-06T16:51:26;0.63;;;0.40;;
5209;SDS011;2624;48.048;11.706;2023-08-06T16:56:28;0.50;;;0.50;;
5209;SDS011;2624;48.048;11.706;2023-08-06T17:01:31;0.40;;;0.40;;
5209;SDS011;2624;48.048;11.706;2023-08-06T17:06:35;1.03;;;0.43;;
5209;SDS011;2624;48.048;11.706;2023-08-06T17:11:37;0.90;;;0.50;;
5209;SDS011;2624;48.048;11.706;2023-08-06T17:16:40;0.70;;;0.43;;
5209;SDS011;2624;48.048;11.706;2023-08-06T17:21:42;1.53;;;0.60;;
5209;SDS011;2624;48.048;11.706;2023-08-06T17:26:43;1.37;;;0.40;;
5209;SDS011;2624;48.048;11.706;2023-08-06T17:31:46;0.40;;;0.40;;
5209;SDS011;2624;48.048;11.706;2023-08-06T17:36:48;0.43;;;0.43;;
5209;SDS011;2624;48.048;11.706;2023-08-06T17:41:50;1.80;;;0.40;;
5209;SDS011;2624;48.048;11.706;2023-08-06T17:46:53;0.40;;;0.40;;
5209;SDS011;2624;48.048;11.706;2023-08-06T17:51:55;0.40;;;0.40;;
5209;SDS011;2624;48.048;11.706;2023-08-06T17:56:56;0.30;;;0.30;;
5209;SDS011;2624;48.048;11.706;2023-08-06T18:02:00;0.40;;;0.40;;
5209;SDS011;2624;48.048;11.706;2023-08-06T18:07:02;1.17;;;0.50;;
5209;SDS011;2624;48.048;11.706;2023-08-06T18:12:04;1.03;;;0.70;;
5209;SDS011;2624;48.048;11.706;2023-08-06T18:17:09;0.80;;;0.70;;
5209;SDS011;2624;48.048;11.706;2023-08-06T18:22:11;0.47;;;0.47;;
5209;SDS011;2624;48.048;11.706;2023-08-06T18:27:13;0.40;;;0.40;;
5209;SDS011;2624;48.048;11.706;2023-08-06T18:32:20;0.60;;;0.50;;
5209;SDS011;2624;48.048;11.706;2023-08-06T18:37:21;0.47;;;0.47;;
5209;SDS011;2624;48.048;11.706;2023-08-06T18:42:23;0.43;;;0.43;;
5209;SDS011;2624;48.048;11.706;2023-08-06T18:47:26;0.70;;;0.60;;
5209;SDS011;2624;48.048;11.706;2023-08-06T18:52:30;0.40;;;0.40;;
5209;SDS011;2624;48.048;11.706;2023-08-06T18:57:31;0.50;;;0.50;;
5209;SDS011;2624;48.048;11.706;2023-08-06T19:02:35;2.50;;;0.60;;
5209;SDS011;2624;48.048;11.706;2023-08-06T19:07:36;0.70;;;0.70;;
5209;SDS011;2624;48.048;11.706;2023-08-06T19:12:38;1.23;;;0.97;;
5209;SDS011;2624;48.048;11.706;2023-08-06T19:17:41;0.53;;;0.53;;
5209;SDS011;2624;48.048;11.706;2023-08-06T19:22:43;1.53;;;0.50;;
5209;SDS011;2624;48.048;11.706;2023-08-06T19:27:46;0.40;;;0.40;;
5209;SDS011;2624;48.048;11.706;2023-08-06T19:32:49;0.50;;;0.50;;
5209;SDS011;2624;48.048;11.706;2023-08-06T19:37:51;0.50;;;0.47;;
5209;SDS011;2624;48.048;11.706;2023-08-06T19:42:53;0.50;;;0.50;;
5209;SDS011;2624;48.048;11.706;2023-08-06T19:47:56;0.57;;;0.57;;
5209;SDS011;2624;48.048;11.706;2023-08-06T19:52:58;1.13;;;0.50;;
5209;SDS011;2624;48.048;11.706;2023-08-06T19:58:00;1.33;;;0.83;;
5209;SDS011;2624;48.048;11.706;2023-08-06T20:03:03;1.07;;;0.93;;
5209;SDS011;2624;48.048;11.706;2023-08-06T20:08:05;0.60;;;0.60;;
5209;SDS011;2624;48.048;11.706;2023-08-06T20:13:07;0.70;;;0.70;;
5209;SDS011;2624;48.048;11.706;2023-08-06T20:18:10;0.67;;;0.67;;
5209;SDS011;2624;48.048;11.706;2023-08-06T20:23:12;8.57;;;0.53;;
5209;SDS011;2624;48.048;11.706;2023-08-06T20:28:13;1.00;;;1.00;;
5209;SDS011;2624;48.048;11.706;2023-08-06T20:33:16;0.40;;;0.40;;
5209;SDS011;2624;48.048;11.706;2023-08-06T20:38:18;0.50;;;0.50;;
5209;SDS011;2624;48.048;11.706;2023-08-06T20:43:21;1.03;;;0.50;;
5209;SDS011;2624;48.048;11.706;2023-08-06T20:48:25;0.47;;;0.47;;
5209;SDS011;2624;48.048;11.706;2023-08-06T20:53:27;1.57;;;0.90;;
5209;SDS011;2624;48.048;11.706;2023-08-06T20:58:29;0.73;;;0.70;;
5209;SDS011;2624;48.048;11.706;2023-08-06T21:03:33;0.70;;;0.70;;
5209;SDS011;2624;48.048;11.706;2023-08-06T21:08:35;2.83;;;0.67;;
5209;SDS011;2624;48.048;11.706;2023-08-06T21:13:37;0.90;;;0.80;;
5209;SDS011;2624;48.048;11.706;2023-08-06T21:18:40;0.70;;;0.70;;
5209;SDS011;2624;48.048;11.706;2023-08-06T21:23:41;0.60;;;0.60;;
5209;SDS011;2624;48.048;11.706;2023-08-06T21:28:43;0.70;;;0.70;;
5209;SDS011;2624;48.048;11.706;2023-08-06T21:33:47;0.60;;;0.60;;
5209;SDS011;2624;48.048;11.706;2023-08-06T21:38:49;1.93;;;0.60;;
5209;SDS011;2624;48.048;11.706;2023-08-06T21:43:50;3.40;;;0.80;;
5209;SDS011;2624;48.048;11.706;2023-08-06T21:48:54;0.80;;;0.80;;
5209;SDS011;2624;48.048;11.706;2023-08-06T21:53:57;0.53;;;0.53;;
5209;SDS011;2624;48.048;11.706;2023-08-06T21:58:59;1.23;;;1.10;;
5209;SDS011;2624;48.048;11.706;2023-08-06T22:04:02;3.70;;;0.80;;
5209;SDS011;2624;48.048;11.706;2023-08-06T22:09:04;4.00;;;0.50;;
5209;SDS011;2624;48.048;11.706;2023-08-06T22:14:06;0.60;;;0.60;;
5209;SDS011;2624;48.048;11.706;2023-08-06T22:19:09;1.60;;;1.37;;
5209;SDS011;2624;48.048;11.706;2023-08-06T22:24:11;3.63;;;0.80;;
5209;SDS011;2624;48.048;11.706;2023-08-06T22:29:12;0.87;;;0.80;;
5209;SDS011;2624;48.048;11.706;2023-08-06T22:34:15;1.53;;;1.00;;
5209;SDS011;2624;48.048;11.706;2023-08-06T22:39:17;0.70;;;0.70;;
5209;SDS011;2624;48.048;11.706;2023-08-06T22:44:19;0.63;;;0.60;;
5209;SDS011;2624;48.048;11.706;2023-08-06T22:49:22;2.00;;;0.83;;
5209;SDS011;2624;48.048;11.706;2023-08-06T22:54:24;0.73;;;0.67;;
5209;SDS011;2624;48.048;11.706;2023-08-06T22:59:26;1.00;;;1.00;;
5209;SDS011;2624;48.048;11.706;2023-08-06T23:04:29;1.03;;;0.90;;
5209;SDS011;2624;48.048;11.706;2023-08-06T23:09:31;0.87;;;0.87;;
5209;SDS011;2624;48.048;11.706;2023-08-06T23:14:33;0.80;;;0.73;;
5209;SDS011;2624;48.048;11.706;2023-08-06T23:19:36;0.70;;;0.60;;
5209;SDS011;2624;48.048;11.706;2023-08-06T23:24:38;2.97;;;1.20;;
5209;SDS011;2624;48.048;11.706;2023-08-06T23:29:39;0.60;;;0.60;;
5209;SDS011;2624;48.048;11.706;2023-08-06T23:34:42;2.67;;;0.80;;
5209;SDS011;2624;48.048;11.706;2023-08-06T23:39:44;1.33;;;0.93;;
5209;SDS011;2624;48.048;11.706;2023-08-06T23:44:46;3.00;;;0.80;;
5209;SDS011;2624;48.048;11.706;2023-08-06T23:49:49;1.17;;;0.70;;
5209;SDS011;2624;48.048;11.706;2023-08-06T23:54:51;0.70;;;0.70;;
5209;SDS011;2624;48.048;11.706;2023-08-06T23:59:53;2.50;;;0.80;;
